createdAt,value
2022-11-21T00:00:45.625Z,0.9
2022-11-21T00:01:53.972Z,0.9
2022-11-21T00:03:02.532Z,1.2
2022-11-21T00:04:10.859Z,1.2
2022-11-21T00:05:19.258Z,1.2
2022-11-21T00:06:27.793Z,0.5
2022-11-21T00:07:36.165Z,0.5
2022-11-21T00:08:44.478Z,0.5
2022-11-21T00:09:53.015Z,0.8
2022-11-21T00:11:01.374Z,0.8
2022-11-21T00:12:09.711Z,0.8
2022-11-21T00:13:18.257Z,0.7
2022-11-21T00:14:26.807Z,0.7
2022-11-21T00:15:34.925Z,0.7
2022-11-21T00:16:43.482Z,0.4
2022-11-21T00:17:51.818Z,0.4
2022-11-21T00:19:00.164Z,0.4
2022-11-21T00:20:08.717Z,0.5
2022-11-21T00:21:17.068Z,0.5
2022-11-21T00:22:25.394Z,0.5
2022-11-21T00:23:33.958Z,0.7
2022-11-21T00:24:42.294Z,0.7
2022-11-21T00:25:50.631Z,0.7
2022-11-21T00:26:59.176Z,0.6
2022-11-21T00:28:07.564Z,0.6
2022-11-21T00:29:15.886Z,0.6
2022-11-21T00:30:24.491Z,1.4
2022-11-21T00:31:32.819Z,1.4
2022-11-21T00:32:41.162Z,1.4
2022-11-21T00:33:49.690Z,0.5
2022-11-21T00:34:58.053Z,0.5
2022-11-21T00:36:06.394Z,0.5
2022-11-21T00:37:14.934Z,0.5
2022-11-21T00:38:23.296Z,0.5
2022-11-21T00:39:31.628Z,0.5
2022-11-21T00:40:40.178Z,1.3
2022-11-21T00:41:48.524Z,1.3
2022-11-21T00:42:56.849Z,1.3
2022-11-21T00:44:05.397Z,0.5
2022-11-21T00:45:13.751Z,0.5
2022-11-21T00:46:22.111Z,0.5
2022-11-21T00:47:30.628Z,0.8
2022-11-21T00:48:38.969Z,0.8
2022-11-21T00:49:47.299Z,0.8
2022-11-21T00:50:55.866Z,0.8
2022-11-21T00:52:04.194Z,0.8
2022-11-21T00:53:12.561Z,0.8
2022-11-21T00:54:21.150Z,0.8
2022-11-21T00:55:29.474Z,0.8
2022-11-21T00:56:37.852Z,0.8
2022-11-21T00:57:46.390Z,0.8
2022-11-21T00:58:54.754Z,0.8
2022-11-21T01:00:03.126Z,0.8
2022-11-21T01:01:11.721Z,2
2022-11-21T01:02:20.025Z,2
2022-11-21T01:03:28.345Z,2
2022-11-21T01:04:36.905Z,2.4
2022-11-21T01:05:45.292Z,2.4
2022-11-21T01:06:53.638Z,2.4
2022-11-21T01:08:02.180Z,3.8
2022-11-21T01:09:10.513Z,3.8
2022-11-21T01:10:18.848Z,3.8
2022-11-21T01:11:27.402Z,3
2022-11-21T01:12:35.772Z,3
2022-11-21T01:13:44.092Z,3
2022-11-21T01:14:52.639Z,3.6
2022-11-21T01:16:00.973Z,3.6
2022-11-21T01:17:09.324Z,3.6
2022-11-21T01:18:17.867Z,4.3
2022-11-21T01:19:26.202Z,4.3
2022-11-21T01:20:34.532Z,4.3
2022-11-21T01:21:43.095Z,4.2
2022-11-21T01:22:51.441Z,4.2
2022-11-21T01:23:59.767Z,4.2
2022-11-21T01:25:08.334Z,3.3
2022-11-21T01:26:16.664Z,3.3
2022-11-21T01:27:25.022Z,3.3
2022-11-21T01:28:33.585Z,4.1
2022-11-21T01:29:41.893Z,4.1
2022-11-21T01:30:50.235Z,4.1
2022-11-21T01:31:58.769Z,2.8
2022-11-21T01:33:07.115Z,2.8
2022-11-21T01:34:15.464Z,2.8
2022-11-21T01:35:23.996Z,1.7
2022-11-21T01:36:32.330Z,1.7
2022-11-21T01:37:40.658Z,1.7
2022-11-21T01:38:49.211Z,2.8
2022-11-21T01:39:57.545Z,2.8
2022-11-21T01:41:05.886Z,2.8
2022-11-21T01:42:14.434Z,1.5
2022-11-21T01:43:22.775Z,1.5
2022-11-21T01:44:31.250Z,1.5
2022-11-21T01:45:39.669Z,1.5
2022-11-21T01:46:47.983Z,1.5
2022-11-21T01:47:56.324Z,1.5
2022-11-21T01:49:04.859Z,2
2022-11-21T01:50:13.263Z,2
2022-11-21T01:51:21.601Z,2
2022-11-21T01:52:30.154Z,0.8
2022-11-21T01:53:38.495Z,0.8
2022-11-21T01:54:46.833Z,0.8
2022-11-21T01:55:55.416Z,1.7
2022-11-21T01:57:03.767Z,1.7
2022-11-21T01:58:12.097Z,1.7
2022-11-21T01:59:20.638Z,1.1
2022-11-21T02:00:29.012Z,1.1
2022-11-21T02:01:37.322Z,1.1
2022-11-21T02:02:45.881Z,1
2022-11-21T02:03:54.232Z,1
2022-11-21T02:05:02.545Z,1
2022-11-21T02:06:11.111Z,0.8
2022-11-21T02:07:19.561Z,0.8
2022-11-21T02:08:27.786Z,0.8
2022-11-21T02:09:36.347Z,0.9
2022-11-21T02:10:44.684Z,0.9
2022-11-21T02:11:53.020Z,0.9
2022-11-21T02:13:01.560Z,0.5
2022-11-21T02:14:09.901Z,0.5
2022-11-21T02:15:18.272Z,0.5
2022-11-21T02:16:26.846Z,1.1
2022-11-21T02:17:35.144Z,1.1
2022-11-21T02:18:43.480Z,1.1
2022-11-21T02:19:52.036Z,0.6
2022-11-21T02:21:00.371Z,0.6
2022-11-21T02:22:08.709Z,0.6
2022-11-21T02:23:17.240Z,1.3
2022-11-21T02:24:25.978Z,1.3
2022-11-21T02:25:33.949Z,1.3
2022-11-21T02:26:42.490Z,0.9
2022-11-21T02:27:50.837Z,0.9
2022-11-21T02:28:59.178Z,0.9
2022-11-21T02:30:07.712Z,1.2
2022-11-21T02:31:16.072Z,1.2
2022-11-21T02:32:24.442Z,1.2
2022-11-21T02:33:32.940Z,1.4
2022-11-21T02:34:41.266Z,1.4
2022-11-21T02:35:49.602Z,1.4
2022-11-21T02:36:58.143Z,1.2
2022-11-21T02:38:06.489Z,1.2
2022-11-21T02:39:14.813Z,1.2
2022-11-21T02:40:23.386Z,1.7
2022-11-21T02:41:31.740Z,1.7
2022-11-21T02:42:40.067Z,1.7
2022-11-21T02:43:48.622Z,1.3
2022-11-21T02:44:56.969Z,1.3
2022-11-21T02:46:05.300Z,1.3
2022-11-21T02:47:13.842Z,0.9
2022-11-21T02:48:22.216Z,0.9
2022-11-21T02:49:30.519Z,0.9
2022-11-21T02:50:39.077Z,0.7
2022-11-21T02:51:47.407Z,0.7
2022-11-21T02:52:55.756Z,0.7
2022-11-21T02:54:04.297Z,0.5
2022-11-21T02:55:12.649Z,0.5
2022-11-21T02:56:20.978Z,0.5
2022-11-21T02:57:29.521Z,0.8
2022-11-21T02:58:37.844Z,0.8
2022-11-21T02:59:46.181Z,0.8
2022-11-21T03:00:54.758Z,0.7
2022-11-21T03:02:03.068Z,0.7
2022-11-21T03:03:11.412Z,0.7
2022-11-21T03:04:19.988Z,0.9
2022-11-21T03:05:28.295Z,0.9
2022-11-21T03:06:36.649Z,0.9
2022-11-21T03:07:45.201Z,2
2022-11-21T03:08:53.528Z,2
2022-11-21T03:10:01.858Z,2
2022-11-21T03:11:10.444Z,1.5
2022-11-21T03:12:18.779Z,1.5
2022-11-21T03:13:27.101Z,1.5
2022-11-21T03:14:35.631Z,1.8
2022-11-21T03:15:43.963Z,1.8
2022-11-21T03:16:52.297Z,1.8
2022-11-21T03:18:00.833Z,2.4
2022-11-21T03:19:09.160Z,2.4
2022-11-21T03:20:17.531Z,2.4
2022-11-21T03:21:26.047Z,3.4
2022-11-21T03:22:34.387Z,3.4
2022-11-21T03:23:42.767Z,3.4
2022-11-21T03:24:51.295Z,2.3
2022-11-21T03:25:59.643Z,2.3
2022-11-21T03:27:07.969Z,2.3
2022-11-21T03:28:16.528Z,4.4
2022-11-21T03:29:24.852Z,4.4
2022-11-21T03:30:33.217Z,4.4
2022-11-21T03:31:41.762Z,3.3
2022-11-21T03:32:50.099Z,3.3
2022-11-21T03:33:58.429Z,3.3
2022-11-21T03:35:06.967Z,2.4
2022-11-21T03:36:15.332Z,2.4
2022-11-21T03:37:23.628Z,2.4
2022-11-21T03:38:32.173Z,2.2
2022-11-21T03:39:40.498Z,2.2
2022-11-21T03:40:48.837Z,2.2
2022-11-21T03:41:57.389Z,2.9
2022-11-21T03:43:05.724Z,2.9
2022-11-21T03:44:14.065Z,2.9
2022-11-21T03:45:22.610Z,2.9
2022-11-21T03:46:30.953Z,2.9
2022-11-21T03:47:39.278Z,2.9
2022-11-21T03:48:47.829Z,2
2022-11-21T03:49:56.172Z,2
2022-11-21T03:51:04.509Z,2
2022-11-21T03:52:13.086Z,2.1
2022-11-21T03:53:21.408Z,2.1
2022-11-21T03:54:30.037Z,2.1
2022-11-21T03:55:38.263Z,1.2
2022-11-21T03:56:46.602Z,1.2
2022-11-21T03:57:54.944Z,1.2
2022-11-21T03:59:03.489Z,1.9
2022-11-21T04:00:11.846Z,1.9
2022-11-21T04:01:20.189Z,1.9
2022-11-21T04:02:28.731Z,1.5
2022-11-21T04:03:37.071Z,1.5
2022-11-21T04:04:45.392Z,1.5
2022-11-21T04:05:53.944Z,1
2022-11-21T04:07:02.384Z,1
2022-11-21T04:08:10.681Z,1
2022-11-21T04:09:19.212Z,0.9
2022-11-21T04:10:27.545Z,0.9
2022-11-21T04:11:35.890Z,0.9
2022-11-21T04:12:44.437Z,2.3
2022-11-21T04:13:52.770Z,2.3
2022-11-21T04:15:01.096Z,2.3
2022-11-21T04:16:09.677Z,1
2022-11-21T04:17:17.986Z,1
2022-11-21T04:18:26.323Z,1
2022-11-21T04:19:34.856Z,1.1
2022-11-21T04:20:43.207Z,1.1
2022-11-21T04:21:51.534Z,1.1
2022-11-21T04:23:00.082Z,1.7
2022-11-21T04:24:08.450Z,1.7
2022-11-21T04:25:16.743Z,1.7
2022-11-21T04:26:25.294Z,1.4
2022-11-21T04:27:33.613Z,1.4
2022-11-21T04:28:41.949Z,1.4
2022-11-21T04:29:50.494Z,1.8
2022-11-21T04:31:00.697Z,1.8
2022-11-21T04:32:07.159Z,1.8
2022-11-21T04:33:15.703Z,1.6
2022-11-21T04:34:24.022Z,1.6
2022-11-21T04:35:32.371Z,1.6
2022-11-21T04:36:40.974Z,2.5
2022-11-21T04:37:49.249Z,2.5
2022-11-21T04:38:57.633Z,2.5
2022-11-21T04:40:06.201Z,3.9
2022-11-21T04:41:14.522Z,3.9
2022-11-21T04:42:22.860Z,3.9
2022-11-21T04:43:31.405Z,2.1
2022-11-21T04:44:39.736Z,2.1
2022-11-21T04:45:48.077Z,2.1
2022-11-21T04:46:58.978Z,2.2
2022-11-21T04:48:04.950Z,2.2
2022-11-21T04:49:13.283Z,2.2
2022-11-21T04:50:21.826Z,2.1
2022-11-21T04:51:30.164Z,2.1
2022-11-21T04:52:38.499Z,2.1
2022-11-21T04:53:47.034Z,2
2022-11-21T04:54:55.390Z,2
2022-11-21T04:56:03.744Z,2
2022-11-21T04:57:12.273Z,1.3
2022-11-21T04:58:20.733Z,1.3
2022-11-21T04:59:28.939Z,1.3
2022-11-21T05:00:37.501Z,1.3
2022-11-21T05:01:45.879Z,1.3
2022-11-21T05:02:54.234Z,1.3
2022-11-21T05:04:02.837Z,1.5
2022-11-21T05:05:11.129Z,1.5
2022-11-21T05:06:19.501Z,1.5
2022-11-21T05:07:28.084Z,2.5
2022-11-21T05:08:36.396Z,2.5
2022-11-21T05:09:44.730Z,2.5
2022-11-21T05:10:53.302Z,2.6
2022-11-21T05:12:01.662Z,2.6
2022-11-21T05:13:09.975Z,2.6
2022-11-21T05:14:18.519Z,4
2022-11-21T05:15:26.875Z,4
2022-11-21T05:16:35.212Z,4
2022-11-21T05:17:43.752Z,4.1
2022-11-21T05:18:52.076Z,4.1
2022-11-21T05:20:00.427Z,4.1
2022-11-21T05:21:08.995Z,1.9
2022-11-21T05:22:17.332Z,1.9
2022-11-21T05:23:25.668Z,1.9
2022-11-21T05:24:34.209Z,2.3
2022-11-21T05:25:42.562Z,2.3
2022-11-21T05:26:50.886Z,2.3
2022-11-21T05:27:59.484Z,2.1
2022-11-21T05:29:07.784Z,2.1
2022-11-21T05:30:16.138Z,2.1
2022-11-21T05:31:24.694Z,1.9
2022-11-21T05:32:33.041Z,1.9
2022-11-21T05:33:41.398Z,1.9
2022-11-21T05:34:49.919Z,2.4
2022-11-21T05:35:58.295Z,2.4
2022-11-21T05:37:06.656Z,2.4
2022-11-21T05:38:15.194Z,1.8
2022-11-21T05:39:23.518Z,1.8
2022-11-21T05:40:31.910Z,1.8
2022-11-21T05:41:40.424Z,5.9
2022-11-21T05:42:48.759Z,5.9
2022-11-21T05:43:57.117Z,5.9
2022-11-21T05:45:05.627Z,10.9
2022-11-21T05:46:13.980Z,10.9
2022-11-21T05:47:22.304Z,10.9
2022-11-21T05:48:30.880Z,14.1
2022-11-21T05:49:39.278Z,14.1
2022-11-21T05:50:47.599Z,14.1
2022-11-21T05:51:56.150Z,15.1
2022-11-21T05:53:04.491Z,15.1
2022-11-21T05:54:12.873Z,15.1
2022-11-21T05:55:21.434Z,21.1
2022-11-21T05:56:29.786Z,21.1
2022-11-21T05:57:38.107Z,21.1
2022-11-21T05:58:46.651Z,17.1
2022-11-21T05:59:55.001Z,17.1
2022-11-21T06:01:03.328Z,17.1
2022-11-21T06:02:11.860Z,17.299999
2022-11-21T06:03:20.362Z,17.299999
2022-11-21T06:04:28.701Z,17.299999
2022-11-21T06:05:37.113Z,41.299999
2022-11-21T06:06:45.450Z,41.299999
2022-11-21T06:07:53.782Z,41.299999
2022-11-21T06:09:02.328Z,5.6
2022-11-21T06:10:10.665Z,5.6
2022-11-21T06:11:19.006Z,5.6
2022-11-21T06:12:27.554Z,36.799999
2022-11-21T06:13:36.764Z,36.799999
2022-11-21T06:14:45.097Z,36.799999
2022-11-21T06:15:53.682Z,75
2022-11-21T06:17:01.989Z,75
2022-11-21T06:18:10.324Z,75
2022-11-21T06:19:18.859Z,20.700001
2022-11-21T06:20:27.204Z,20.700001
2022-11-21T06:21:35.534Z,20.700001
2022-11-21T06:22:44.063Z,4.6
2022-11-21T06:23:52.412Z,4.6
2022-11-21T06:25:00.740Z,4.6
2022-11-21T06:26:09.301Z,7.8
2022-11-21T06:27:17.622Z,7.8
2022-11-21T06:28:25.963Z,7.8
2022-11-21T06:29:34.526Z,11.5
2022-11-21T06:30:42.861Z,11.5
2022-11-21T06:31:51.225Z,11.5
2022-11-21T06:32:59.741Z,1
2022-11-21T06:34:08.094Z,1
2022-11-21T06:35:16.442Z,1
2022-11-21T06:36:25.002Z,2.1
2022-11-21T06:37:33.328Z,2.1
2022-11-21T06:38:41.673Z,2.1
2022-11-21T06:39:50.219Z,3.4
2022-11-21T06:40:58.544Z,3.4
2022-11-21T06:42:06.890Z,3.4
2022-11-21T06:43:15.442Z,10.1
2022-11-21T06:44:23.768Z,10.1
2022-11-21T06:45:32.116Z,10.1
2022-11-21T06:46:40.648Z,1.6
2022-11-21T06:47:49.005Z,1.6
2022-11-21T06:48:57.319Z,1.6
2022-11-21T06:50:05.850Z,0.7
2022-11-21T06:51:14.200Z,0.7
2022-11-21T06:52:22.547Z,0.7
2022-11-21T06:53:31.067Z,1.4
2022-11-21T06:54:39.409Z,1.4
2022-11-21T06:55:47.739Z,1.4
2022-11-21T06:56:56.286Z,3.9
2022-11-21T06:58:04.628Z,3.9
2022-11-21T06:59:12.959Z,3.9
2022-11-21T07:00:21.541Z,1.8
2022-11-21T07:01:30.074Z,1.8
2022-11-21T07:02:38.224Z,1.8
2022-11-21T07:03:46.793Z,0.4
2022-11-21T07:04:55.092Z,0.4
2022-11-21T07:06:03.467Z,0.4
2022-11-21T07:07:12.078Z,2
2022-11-21T07:08:20.367Z,2
2022-11-21T07:09:33.576Z,2
2022-11-21T07:10:37.254Z,5
2022-11-21T07:11:45.582Z,5
2022-11-21T07:12:53.961Z,5
2022-11-21T07:14:06.307Z,0.5
2022-11-21T07:15:10.860Z,0.5
2022-11-21T07:16:19.208Z,0.5
2022-11-21T07:17:27.802Z,0.4
2022-11-21T07:18:36.154Z,0.4
2022-11-21T07:19:44.521Z,0.4
2022-11-21T07:20:53.062Z,2.1
2022-11-21T07:22:01.401Z,2.1
2022-11-21T07:23:09.734Z,2.1
2022-11-21T07:24:18.283Z,0.7
2022-11-21T07:25:26.621Z,0.7
2022-11-21T07:26:34.942Z,0.7
2022-11-21T07:27:43.492Z,5.1
2022-11-21T07:28:51.824Z,5.1
2022-11-21T07:30:00.166Z,5.1
2022-11-21T07:31:13.428Z,1.8
2022-11-21T07:32:17.033Z,1.8
2022-11-21T07:33:25.366Z,1.8
2022-11-21T07:34:33.891Z,1.5
2022-11-21T07:35:42.282Z,1.5
2022-11-21T07:36:50.573Z,1.5
2022-11-21T07:37:59.105Z,0.8
2022-11-21T07:39:07.441Z,0.8
2022-11-21T07:40:15.783Z,0.8
2022-11-21T07:41:24.326Z,1.9
2022-11-21T07:42:32.640Z,1.9
2022-11-21T07:43:40.979Z,1.9
2022-11-21T07:44:49.527Z,2.4
2022-11-21T07:45:57.852Z,2.4
2022-11-21T07:47:06.187Z,2.4
2022-11-21T07:48:14.729Z,3.1
2022-11-21T07:49:23.057Z,3.1
2022-11-21T07:50:31.405Z,3.1
2022-11-21T07:51:39.963Z,3.9
2022-11-21T07:52:48.265Z,3.9
2022-11-21T07:53:56.590Z,3.9
2022-11-21T07:55:05.124Z,3.9
2022-11-21T07:56:13.466Z,3.9
2022-11-21T07:57:21.811Z,3.9
2022-11-21T07:58:30.334Z,32.200001
2022-11-21T07:59:38.661Z,32.200001
2022-11-21T08:00:47.005Z,32.200001
2022-11-21T08:01:55.592Z,5.8
2022-11-21T08:03:03.873Z,5.8
2022-11-21T08:04:12.201Z,5.8
2022-11-21T08:05:20.734Z,6.2
2022-11-21T08:06:29.074Z,6.2
2022-11-21T08:07:37.452Z,6.2
2022-11-21T08:08:45.939Z,6.1
2022-11-21T08:09:54.269Z,6.1
2022-11-21T08:11:02.604Z,6.1
2022-11-21T08:12:11.142Z,5.3
2022-11-21T08:13:19.495Z,5.3
2022-11-21T08:14:27.814Z,5.3
2022-11-21T08:15:36.359Z,3.9
2022-11-21T08:16:44.694Z,3.9
2022-11-21T08:17:53.017Z,3.9
2022-11-21T08:19:01.561Z,3.8
2022-11-21T08:20:09.893Z,3.8
2022-11-21T08:21:19.894Z,3.8
2022-11-21T08:22:26.756Z,3.3
2022-11-21T08:23:35.125Z,3.3
2022-11-21T08:24:43.444Z,3.3
2022-11-21T08:25:51.982Z,3.5
2022-11-21T08:27:01.283Z,3.5
2022-11-21T08:28:09.631Z,3.5
2022-11-21T08:29:18.166Z,3.7
2022-11-21T08:30:26.509Z,3.7
2022-11-21T08:31:34.837Z,3.7
2022-11-21T08:32:43.369Z,2.3
2022-11-21T08:33:51.697Z,2.3
2022-11-21T08:35:00.035Z,2.3
2022-11-21T08:36:08.575Z,3.4
2022-11-21T08:37:16.914Z,3.4
2022-11-21T08:38:25.237Z,3.4
2022-11-21T08:39:33.805Z,3
2022-11-21T08:40:42.109Z,3
2022-11-21T08:41:50.441Z,3
2022-11-21T08:42:58.985Z,3.6
2022-11-21T08:44:09.850Z,3.6
2022-11-21T08:45:15.637Z,3.6
2022-11-21T08:46:24.180Z,2.8
2022-11-21T08:47:32.516Z,2.8
2022-11-21T08:48:40.834Z,2.8
2022-11-21T08:49:49.378Z,2.8
2022-11-21T08:50:57.732Z,2.8
2022-11-21T08:52:06.056Z,2.8
2022-11-21T08:53:14.600Z,2.1
2022-11-21T08:54:22.952Z,2.1
2022-11-21T08:55:31.314Z,2.1
2022-11-21T08:56:39.829Z,3.2
2022-11-21T08:57:48.159Z,3.2
2022-11-21T08:58:56.484Z,3.2
2022-11-21T09:00:05.020Z,1.6
2022-11-21T09:01:13.355Z,1.6
2022-11-21T09:02:21.686Z,1.6
2022-11-21T09:03:31.457Z,2
2022-11-21T09:04:38.565Z,2
2022-11-21T09:05:46.904Z,2
2022-11-21T09:06:55.453Z,1.1
2022-11-21T09:08:03.760Z,1.1
2022-11-21T09:09:12.087Z,1.1
2022-11-21T09:10:20.644Z,1.3
2022-11-21T09:11:28.996Z,1.3
2022-11-21T09:12:37.314Z,1.3
2022-11-21T09:13:47.019Z,1.3
2022-11-21T09:14:54.177Z,1.3
2022-11-21T09:16:02.516Z,1.3
2022-11-21T09:17:11.059Z,1.8
2022-11-21T09:18:19.396Z,1.8
2022-11-21T09:19:27.947Z,1.8
2022-11-21T09:20:36.354Z,1.9
2022-11-21T09:21:44.595Z,1.9
2022-11-21T09:22:52.934Z,1.9
2022-11-21T09:24:01.460Z,8.9
2022-11-21T09:25:09.788Z,8.9
2022-11-21T09:26:18.128Z,8.9
2022-11-21T09:27:26.704Z,11
2022-11-21T09:28:34.997Z,11
2022-11-21T09:29:45.792Z,11
2022-11-21T09:30:51.890Z,5.4
2022-11-21T09:32:00.201Z,5.4
2022-11-21T09:33:08.528Z,5.4
2022-11-21T09:34:17.058Z,3.2
2022-11-21T09:35:25.390Z,3.2
2022-11-21T09:36:33.736Z,3.2
2022-11-21T09:37:42.255Z,2.1
2022-11-21T09:38:50.580Z,2.1
2022-11-21T09:39:58.906Z,2.1
2022-11-21T09:41:07.452Z,1.6
2022-11-21T09:42:15.788Z,1.6
2022-11-21T09:43:24.158Z,1.6
2022-11-21T09:44:32.672Z,1.6
2022-11-21T09:45:41.008Z,1.6
2022-11-21T09:46:49.347Z,1.6
2022-11-21T09:47:57.878Z,1.4
2022-11-21T09:49:06.214Z,1.4
2022-11-21T09:50:14.547Z,1.4
2022-11-21T09:51:23.078Z,0.7
2022-11-21T09:52:31.422Z,0.7
2022-11-21T09:53:39.760Z,0.7
2022-11-21T09:54:48.291Z,3.9
2022-11-21T09:55:56.640Z,3.9
2022-11-21T09:57:04.962Z,3.9
2022-11-21T09:58:13.503Z,1.8
2022-11-21T09:59:21.849Z,1.8
2022-11-21T10:00:30.218Z,1.8
2022-11-21T10:01:38.741Z,4.4
2022-11-21T10:02:47.121Z,4.4
2022-11-21T10:03:55.382Z,4.4
2022-11-21T10:05:03.924Z,3.8
2022-11-21T10:06:12.249Z,3.8
2022-11-21T10:07:20.634Z,3.8
2022-11-21T10:08:29.135Z,3
2022-11-21T10:09:37.460Z,3
2022-11-21T10:10:45.800Z,3
2022-11-21T10:11:54.357Z,1
2022-11-21T10:13:02.683Z,1
2022-11-21T10:14:11.012Z,1
2022-11-21T10:15:19.596Z,0.8
2022-11-21T10:16:27.924Z,0.8
2022-11-21T10:17:36.262Z,0.8
2022-11-21T10:18:44.807Z,1.1
2022-11-21T10:19:53.136Z,1.1
2022-11-21T10:21:01.490Z,1.1
2022-11-21T10:22:10.057Z,1.1
2022-11-21T10:23:18.366Z,1.1
2022-11-21T10:24:27.008Z,1.1
2022-11-21T10:25:35.249Z,1.4
2022-11-21T10:26:43.575Z,1.4
2022-11-21T10:27:51.894Z,1.4
2022-11-21T10:29:00.471Z,1.2
2022-11-21T10:30:08.752Z,1.2
2022-11-21T10:31:17.132Z,1.2
2022-11-21T10:32:25.645Z,1.7
2022-11-21T10:33:33.953Z,1.7
2022-11-21T10:34:42.293Z,1.7
2022-11-21T10:35:50.847Z,1.4
2022-11-21T10:36:59.170Z,1.4
2022-11-21T10:38:07.501Z,1.4
2022-11-21T10:39:16.053Z,1
2022-11-21T10:40:24.381Z,1
2022-11-21T10:41:32.716Z,1
2022-11-21T10:42:41.258Z,1
2022-11-21T10:43:49.580Z,1
2022-11-21T10:44:57.910Z,1
2022-11-21T10:46:06.461Z,1.2
2022-11-21T10:47:14.806Z,1.2
2022-11-21T10:48:23.116Z,1.2
2022-11-21T10:49:31.649Z,1.1
2022-11-21T10:50:40.002Z,1.1
2022-11-21T10:51:48.346Z,1.1
2022-11-21T10:52:56.934Z,0.9
2022-11-21T10:54:07.939Z,0.9
2022-11-21T10:55:13.707Z,0.9
2022-11-21T10:56:22.256Z,0.8
2022-11-21T10:57:30.586Z,0.8
2022-11-21T10:58:38.912Z,0.8
2022-11-21T10:59:47.454Z,1.8
2022-11-21T11:00:55.817Z,1.8
2022-11-21T11:02:04.120Z,1.8
2022-11-21T11:03:12.680Z,1.3
2022-11-21T11:04:27.564Z,1.3
2022-11-21T11:05:29.360Z,1.3
2022-11-21T11:06:37.884Z,1.9
2022-11-21T11:07:46.270Z,1.9
2022-11-21T11:08:54.578Z,1.9
2022-11-21T11:10:03.127Z,2.1
2022-11-21T11:11:11.473Z,2.1
2022-11-21T11:12:19.816Z,2.1
2022-11-21T11:14:36.678Z,2.3
2022-11-21T11:15:45.027Z,2.3
2022-11-21T11:16:53.563Z,3.7
2022-11-21T11:18:07.558Z,3.7
2022-11-21T11:19:10.297Z,3.7
2022-11-21T11:20:18.778Z,2.6
2022-11-21T11:21:27.125Z,2.6
2022-11-21T11:22:35.455Z,2.6
2022-11-21T11:23:44.012Z,3.2
2022-11-21T11:24:55.060Z,3.2
2022-11-21T11:26:00.744Z,3.2
2022-11-21T11:27:09.267Z,2.8
2022-11-21T11:28:17.615Z,2.8
2022-11-21T11:29:26.109Z,2.8
2022-11-21T11:30:34.489Z,2.4
2022-11-21T11:31:42.843Z,2.4
2022-11-21T11:32:51.145Z,2.4
2022-11-21T11:33:59.687Z,3.1
2022-11-21T11:35:08.092Z,3.1
2022-11-21T11:36:16.415Z,3.1
2022-11-21T11:37:25.487Z,1.6
2022-11-21T11:38:33.812Z,1.6
2022-11-21T11:39:42.137Z,1.6
2022-11-21T11:40:50.744Z,2.3
2022-11-21T11:41:59.215Z,2.3
2022-11-21T11:43:07.535Z,2.3
2022-11-21T11:44:16.174Z,1.3
2022-11-21T11:45:24.513Z,1.3
2022-11-21T11:46:32.849Z,1.3
2022-11-21T11:47:41.406Z,1.5
2022-11-21T11:49:17.086Z,1.5
2022-11-21T11:49:58.093Z,1.5
2022-11-21T11:51:06.661Z,3.5
2022-11-21T11:52:14.999Z,3.5
2022-11-21T11:53:23.320Z,3.5
2022-11-21T11:54:31.864Z,2.6
2022-11-21T11:55:40.208Z,2.6
2022-11-21T11:56:48.545Z,2.6
2022-11-21T11:57:57.082Z,2.2
2022-11-21T11:59:05.450Z,2.2
2022-11-21T12:00:13.841Z,2.2
2022-11-21T12:01:22.337Z,2.3
2022-11-21T12:02:30.699Z,2.3
2022-11-21T12:03:39.026Z,2.3
2022-11-21T12:04:47.565Z,2.1
2022-11-21T12:05:55.935Z,2.1
2022-11-21T12:07:54.274Z,2.1
2022-11-21T12:09:21.161Z,2.4
2022-11-21T12:10:29.511Z,2.4
2022-11-21T12:11:38.074Z,2
2022-11-21T12:12:46.396Z,2
2022-11-21T12:13:54.742Z,2
2022-11-21T12:15:03.286Z,2.2
2022-11-21T12:16:13.537Z,2.2
2022-11-21T12:17:19.994Z,2.2
2022-11-21T12:18:28.513Z,3.5
2022-11-21T12:19:36.851Z,3.5
2022-11-21T12:20:45.185Z,3.5
2022-11-21T12:21:53.734Z,3.2
2022-11-21T12:23:02.120Z,3.2
2022-11-21T12:24:10.432Z,3.2
2022-11-21T12:25:18.968Z,2.4
2022-11-21T12:26:27.315Z,2.4
2022-11-21T12:27:35.695Z,2.4
2022-11-21T12:28:44.213Z,2.8
2022-11-21T12:29:52.585Z,2.8
2022-11-21T12:31:00.926Z,2.8
2022-11-21T12:32:09.477Z,3.7
2022-11-21T12:33:17.804Z,3.7
2022-11-21T12:34:26.166Z,3.7
2022-11-21T12:35:34.713Z,3.4
2022-11-21T12:36:43.060Z,3.4
2022-11-21T12:37:51.397Z,3.4
2022-11-21T12:38:59.964Z,2.6
2022-11-21T12:40:08.285Z,2.6
2022-11-21T12:41:16.627Z,2.6
2022-11-21T12:42:25.163Z,3.4
2022-11-21T12:43:33.596Z,3.4
2022-11-21T12:44:41.849Z,3.4
2022-11-21T12:45:50.408Z,4
2022-11-21T12:46:58.746Z,4
2022-11-21T12:48:07.076Z,4
2022-11-21T12:49:15.652Z,4.1
2022-11-21T12:50:23.982Z,4.1
2022-11-21T12:51:32.314Z,4.1
2022-11-21T12:52:40.864Z,3.8
2022-11-21T12:53:49.191Z,3.8
2022-11-21T12:54:57.553Z,3.8
2022-11-21T12:56:06.052Z,4.7
2022-11-21T12:57:14.371Z,4.7
2022-11-21T12:58:22.732Z,4.7
2022-11-21T12:59:31.431Z,4.1
2022-11-21T13:00:39.637Z,4.1
2022-11-21T13:01:48.061Z,4.1
2022-11-21T13:02:56.555Z,6
2022-11-21T13:04:04.930Z,6
2022-11-21T13:05:13.274Z,6
2022-11-21T13:06:21.813Z,5.1
2022-11-21T13:07:30.172Z,5.1
2022-11-21T13:08:38.484Z,5.1
2022-11-21T13:09:47.020Z,5.5
2022-11-21T13:10:55.408Z,5.5
2022-11-21T13:12:03.712Z,5.5
2022-11-21T13:13:12.258Z,6.6
2022-11-21T13:14:20.584Z,6.6
2022-11-21T13:15:30.876Z,6.6
2022-11-21T13:16:37.485Z,11.2
2022-11-21T13:17:45.838Z,11.2
2022-11-21T13:18:54.175Z,11.2
2022-11-21T13:20:02.718Z,21.4
2022-11-21T13:21:11.099Z,21.4
2022-11-21T13:22:19.456Z,21.4
2022-11-21T13:23:27.998Z,16.6
2022-11-21T13:24:36.352Z,16.6
2022-11-21T13:25:44.673Z,16.6
2022-11-21T13:26:53.255Z,12.5
2022-11-21T13:28:01.569Z,12.5
2022-11-21T13:29:10.586Z,12.5
2022-11-21T13:30:19.183Z,11.3
2022-11-21T13:31:27.575Z,11.3
2022-11-21T13:32:35.940Z,11.3
2022-11-21T13:33:44.493Z,5.2
2022-11-21T13:34:52.833Z,5.2
2022-11-21T13:36:01.214Z,5.2
2022-11-21T13:37:09.752Z,5.2
2022-11-21T13:38:18.116Z,5.2
2022-11-21T13:39:26.878Z,5.2
2022-11-21T13:40:35.025Z,9.1
2022-11-21T13:41:43.352Z,9.1
2022-11-21T13:43:09.786Z,9.1
2022-11-21T13:44:00.231Z,8.8
2022-11-21T13:45:08.597Z,8.8
2022-11-21T13:46:16.948Z,8.8
2022-11-21T13:47:25.495Z,5.7
2022-11-21T13:48:33.819Z,5.7
2022-11-21T13:49:42.168Z,5.7
2022-11-21T13:50:50.742Z,5.3
2022-11-21T13:51:59.097Z,5.3
2022-11-21T13:53:07.468Z,5.3
2022-11-21T13:54:16.016Z,4.6
2022-11-21T13:55:24.389Z,4.6
2022-11-21T13:56:32.786Z,4.6
2022-11-21T13:57:41.373Z,8.9
2022-11-21T13:58:49.816Z,8.9
2022-11-21T13:59:58.105Z,8.9
2022-11-21T14:01:06.687Z,4.1
2022-11-21T14:02:15.002Z,4.1
2022-11-21T14:03:23.356Z,4.1
2022-11-21T14:04:31.976Z,4
2022-11-21T14:05:40.325Z,4
2022-11-21T14:06:48.752Z,4
2022-11-21T14:07:57.360Z,5.8
2022-11-21T14:09:05.651Z,5.8
2022-11-21T14:10:14.016Z,5.8
2022-11-21T14:11:22.589Z,4.4
2022-11-21T14:12:33.789Z,4.4
2022-11-21T14:13:39.279Z,4.4
2022-11-21T14:14:47.855Z,5.3
2022-11-21T14:15:56.196Z,5.3
2022-11-21T14:17:04.552Z,5.3
2022-11-21T14:18:13.131Z,4.4
2022-11-21T14:19:21.521Z,4.4
2022-11-21T14:20:29.890Z,4.4
2022-11-21T14:21:38.448Z,7.2
2022-11-21T14:22:47.481Z,7.2
2022-11-21T14:23:55.172Z,7.2
2022-11-21T14:25:03.737Z,43.099998
2022-11-21T14:26:12.118Z,43.099998
2022-11-21T14:27:20.458Z,43.099998
2022-11-21T14:28:29.048Z,24.5
2022-11-21T14:29:37.413Z,24.5
2022-11-21T15:04:05.929Z,0
2022-11-21T15:05:14.257Z,0
2022-11-21T15:06:22.610Z,0
2022-11-21T15:07:32.176Z,5.8
2022-11-21T15:09:14.715Z,5.8
2022-11-21T15:10:56.476Z,7.8
2022-11-21T15:12:04.837Z,7.8
2022-11-21T15:13:13.198Z,7.8
2022-11-21T15:14:21.793Z,26
2022-11-21T15:15:30.148Z,26
2022-11-21T15:16:38.493Z,26
2022-11-21T15:18:10.438Z,13.7
2022-11-21T15:18:55.430Z,13.7
2022-11-21T15:20:08.344Z,13.7
2022-11-21T15:21:12.405Z,9.4
2022-11-21T15:22:20.780Z,9.4
2022-11-21T15:23:29.156Z,9.4
2022-11-21T15:24:37.830Z,8.3
2022-11-21T15:25:47.177Z,8.3
2022-11-21T15:26:54.493Z,8.3
2022-11-21T15:28:03.088Z,10.1
2022-11-21T15:29:11.450Z,10.1
2022-11-21T15:30:19.800Z,10.1
2022-11-21T15:31:28.376Z,10.4
2022-11-21T15:32:36.749Z,10.4
2022-11-21T15:33:45.156Z,10.4
2022-11-21T15:34:53.908Z,8.9
2022-11-21T15:36:02.108Z,8.9
2022-11-21T15:37:10.443Z,8.9
2022-11-21T15:38:19.035Z,13.3
2022-11-21T15:39:27.367Z,13.3
2022-11-21T15:40:35.772Z,13.3
2022-11-21T15:41:44.312Z,13.8
2022-11-21T15:42:52.659Z,13.8
2022-11-21T15:44:01.014Z,13.8
2022-11-21T15:45:09.608Z,8.1
2022-11-21T15:46:17.965Z,8.1
2022-11-21T15:47:26.321Z,8.1
2022-11-21T15:48:34.876Z,5.6
2022-11-21T15:49:43.230Z,5.6
2022-11-21T15:50:55.954Z,5.6
2022-11-21T15:52:09.490Z,7.4
2022-11-21T15:53:08.545Z,7.4
2022-11-21T15:54:16.906Z,7.4
2022-11-21T15:55:25.469Z,8.2
2022-11-21T15:56:33.839Z,8.2
2022-11-21T15:57:42.215Z,8.2
2022-11-21T15:58:50.783Z,8.4
2022-11-21T15:59:59.181Z,8.4
2022-11-21T16:01:07.525Z,8.4
2022-11-21T16:02:16.104Z,10.8
2022-11-21T16:03:24.440Z,10.8
2022-11-21T16:04:32.781Z,10.8
2022-11-21T16:05:41.382Z,13.5
2022-11-21T16:06:49.744Z,13.5
2022-11-21T16:07:58.177Z,13.5
2022-11-21T16:09:06.723Z,8.8
2022-11-21T16:10:21.212Z,8.8
2022-11-21T16:11:23.476Z,8.8
2022-11-21T16:12:32.070Z,6.6
2022-11-21T16:13:40.412Z,6.6
2022-11-21T16:14:48.782Z,6.6
2022-11-21T16:15:57.339Z,6.6
2022-11-21T16:17:05.734Z,6.6
2022-11-21T16:18:14.077Z,6.6